createdAt,value
2022-11-28T00:00:21.796Z,86.38
2022-11-28T00:03:19.360Z,86.40
2022-11-28T00:06:17.067Z,86.40
2022-11-28T00:09:14.747Z,86.40
2022-11-28T00:12:12.228Z,86.40
2022-11-28T00:15:09.681Z,86.40
2022-11-28T00:18:07.132Z,86.39
2022-11-28T00:21:04.617Z,86.38
2022-11-28T00:24:02.087Z,86.40
2022-11-28T00:26:59.576Z,86.40
2022-11-28T00:29:57.057Z,86.38
2022-11-28T00:32:54.530Z,86.35
2022-11-28T00:35:52.332Z,86.30
2022-11-28T00:38:49.768Z,86.29
2022-11-28T00:41:47.229Z,86.29
2022-11-28T00:44:44.825Z,86.27
2022-11-28T00:47:42.594Z,86.24
2022-11-28T00:50:40.031Z,86.20
2022-11-28T00:53:37.507Z,86.13
2022-11-28T00:56:34.997Z,86.10
2022-11-28T00:59:32.424Z,86.10
2022-11-28T01:02:29.945Z,86.12
2022-11-28T01:05:27.384Z,86.11
2022-11-28T01:08:24.836Z,86.07
2022-11-28T01:11:22.286Z,86.07
2022-11-28T01:14:19.745Z,86.09
2022-11-28T01:17:17.200Z,86.09
2022-11-28T01:20:14.663Z,86.06
2022-11-28T01:23:12.116Z,86.11
2022-11-28T01:26:09.599Z,86.10
2022-11-28T01:29:07.089Z,86.04
2022-11-28T01:32:04.544Z,86.03
2022-11-28T01:35:02.043Z,86.02
2022-11-28T01:37:59.504Z,86.03
2022-11-28T01:40:56.965Z,86.00
2022-11-28T01:43:54.419Z,85.95
2022-11-28T01:46:51.967Z,85.93
2022-11-28T01:49:49.528Z,86.00
2022-11-28T01:52:47.021Z,85.99
2022-11-28T01:55:44.508Z,86.07
2022-11-28T01:58:41.958Z,86.13
2022-11-28T02:01:39.486Z,86.13
2022-11-28T02:04:37.003Z,86.19
2022-11-28T02:07:34.687Z,86.20
2022-11-28T02:10:32.222Z,86.23
2022-11-28T02:13:29.691Z,86.22
2022-11-28T02:16:27.218Z,86.29
2022-11-28T02:19:24.725Z,86.24
2022-11-28T02:22:22.225Z,86.24
2022-11-28T02:25:19.686Z,86.23
2022-11-28T02:28:17.174Z,86.28
2022-11-28T02:31:14.680Z,86.24
2022-11-28T02:34:12.177Z,86.27
2022-11-28T02:37:09.630Z,86.27
2022-11-28T02:40:07.093Z,86.25
2022-11-28T02:43:04.580Z,86.28
2022-11-28T02:46:02.087Z,86.27
2022-11-28T02:48:59.547Z,86.30
2022-11-28T02:51:56.984Z,86.29
2022-11-28T02:54:54.429Z,86.31
2022-11-28T02:57:51.855Z,86.37
2022-11-28T03:00:49.362Z,86.37
2022-11-28T03:03:47.216Z,86.33
2022-11-28T03:06:44.674Z,86.35
2022-11-28T03:09:42.142Z,86.32
2022-11-28T03:12:39.574Z,86.30
2022-11-28T03:15:37.018Z,86.29
2022-11-28T03:18:34.463Z,86.29
2022-11-28T03:21:31.922Z,86.24
2022-11-28T03:24:29.383Z,86.20
2022-11-28T03:27:26.850Z,86.18
2022-11-28T03:30:24.361Z,86.18
2022-11-28T03:33:22.344Z,86.10
2022-11-28T03:36:19.835Z,86.14
2022-11-28T03:39:17.311Z,86.18
2022-11-28T03:42:14.796Z,86.20
2022-11-28T03:45:12.272Z,86.20
2022-11-28T03:48:09.773Z,86.20
2022-11-28T03:51:07.219Z,86.20
2022-11-28T03:54:04.749Z,86.20
2022-11-28T03:57:02.208Z,86.19
2022-11-28T03:59:59.639Z,86.20
2022-11-28T04:02:57.201Z,86.19
2022-11-28T04:05:54.816Z,86.18
2022-11-28T04:08:52.292Z,86.19
2022-11-28T04:11:49.765Z,86.14
2022-11-28T04:14:47.234Z,86.13
2022-11-28T04:17:44.707Z,86.12
2022-11-28T04:20:42.191Z,86.12
2022-11-28T04:23:39.668Z,86.16
2022-11-28T04:26:37.148Z,86.20
2022-11-28T04:29:34.592Z,86.20
2022-11-28T04:32:32.073Z,86.20
2022-11-28T04:35:29.535Z,86.19
2022-11-28T04:38:26.993Z,86.18
2022-11-28T04:41:24.458Z,86.14
2022-11-28T04:44:22.331Z,86.11
2022-11-28T04:47:19.801Z,86.10
2022-11-28T04:50:17.259Z,86.08
2022-11-28T04:53:14.728Z,86.04
2022-11-28T04:56:12.217Z,86.00
2022-11-28T04:59:09.693Z,85.96
2022-11-28T05:02:07.239Z,85.90
2022-11-28T05:05:04.747Z,85.86
2022-11-28T05:08:02.327Z,85.76
2022-11-28T05:10:59.861Z,85.69
2022-11-28T05:13:57.341Z,85.65
2022-11-28T05:16:54.946Z,85.57
2022-11-28T05:19:52.426Z,85.52
2022-11-28T05:22:49.876Z,85.50
2022-11-28T05:25:47.355Z,85.47
2022-11-28T05:28:44.833Z,85.35
2022-11-28T05:31:42.389Z,85.32
2022-11-28T05:34:40.079Z,85.30
2022-11-28T05:37:37.687Z,85.36
2022-11-28T05:40:35.155Z,85.38
2022-11-28T05:43:32.640Z,85.31
2022-11-28T05:46:30.087Z,85.30
2022-11-28T05:49:28.991Z,85.22
2022-11-28T05:52:26.445Z,85.16
2022-11-28T05:55:23.917Z,85.10
2022-11-28T05:58:21.385Z,85.09
2022-11-28T06:01:18.839Z,85.05
2022-11-28T06:04:16.352Z,85.00
2022-11-28T06:07:13.937Z,84.97
2022-11-28T06:10:11.469Z,84.90
2022-11-28T06:13:08.948Z,84.90
2022-11-28T06:16:06.492Z,84.92
2022-11-28T06:19:03.986Z,84.90
2022-11-28T06:22:01.843Z,84.91
2022-11-28T06:24:59.321Z,84.90
2022-11-28T06:27:56.771Z,84.90
2022-11-28T06:30:54.227Z,84.89
2022-11-28T06:33:51.704Z,84.83
2022-11-28T06:36:49.180Z,84.80
2022-11-28T06:39:46.649Z,84.80
2022-11-28T06:42:44.096Z,84.80
2022-11-28T06:45:41.620Z,84.78
2022-11-28T06:48:39.527Z,84.76
2022-11-28T06:51:37.020Z,84.70
2022-11-28T06:54:34.468Z,84.70
2022-11-28T06:57:32.835Z,84.68
2022-11-28T07:00:30.319Z,84.66
2022-11-28T07:03:27.794Z,84.56
2022-11-28T07:06:25.315Z,84.47
2022-11-28T07:09:22.802Z,84.40
2022-11-28T07:12:20.989Z,84.38
2022-11-28T07:15:18.416Z,84.32
2022-11-28T07:18:15.895Z,84.24
2022-11-28T07:21:14.741Z,84.10
2022-11-28T07:24:12.253Z,84.05
2022-11-28T07:27:09.736Z,83.99
2022-11-28T07:30:07.193Z,83.92
2022-11-28T07:33:04.759Z,83.90
2022-11-28T07:36:02.407Z,83.93
2022-11-28T07:38:59.908Z,83.90
2022-11-28T07:41:57.396Z,83.83
2022-11-28T07:44:54.843Z,83.76
2022-11-28T07:47:52.340Z,83.70
2022-11-28T07:50:50.569Z,83.65
2022-11-28T07:53:48.048Z,83.59
2022-11-28T07:57:11.514Z,83.37
2022-11-28T08:00:03.522Z,83.31
2022-11-28T08:03:00.979Z,83.22
2022-11-28T08:06:01.534Z,82.98
2022-11-28T08:09:00.487Z,82.82
2022-11-28T08:11:57.972Z,82.52
2022-11-28T08:14:55.432Z,82.32
2022-11-28T08:17:52.914Z,82.12
2022-11-28T08:20:50.503Z,81.85
2022-11-28T08:23:47.973Z,81.78
2022-11-28T08:26:45.408Z,81.66
2022-11-28T08:29:43.221Z,81.41
2022-11-28T08:32:40.880Z,81.02
2022-11-28T08:35:38.321Z,80.77
2022-11-28T08:38:35.819Z,80.56
2022-11-28T08:41:33.259Z,80.25
2022-11-28T08:44:30.895Z,80.07
2022-11-28T08:47:28.355Z,79.73
2022-11-28T08:50:25.849Z,79.59
2022-11-28T08:53:23.333Z,79.18
2022-11-28T08:56:20.805Z,78.90
2022-11-28T08:59:18.267Z,78.84
2022-11-28T09:02:15.744Z,78.59
2022-11-28T09:05:13.204Z,78.17
2022-11-28T09:08:12.082Z,77.76
2022-11-28T09:11:09.782Z,77.28
2022-11-28T09:14:07.613Z,76.57
2022-11-28T09:17:05.753Z,76.21
2022-11-28T09:20:03.791Z,76.00
2022-11-28T09:23:01.368Z,75.51
2022-11-28T09:25:58.841Z,74.85
2022-11-28T09:28:56.314Z,74.28
2022-11-28T09:31:53.776Z,74.30
2022-11-28T09:34:51.722Z,73.76
2022-11-28T09:37:49.191Z,73.35
2022-11-28T09:40:46.635Z,72.81
2022-11-28T09:43:44.115Z,72.70
2022-11-28T09:46:41.796Z,72.51
2022-11-28T09:49:40.997Z,72.18
2022-11-28T09:52:43.149Z,71.75
2022-11-28T09:55:40.635Z,71.47
2022-11-28T09:58:38.112Z,71.43
2022-11-28T10:01:35.548Z,70.97
2022-11-28T10:04:33.078Z,70.91
2022-11-28T10:07:30.675Z,70.64
2022-11-28T10:10:28.165Z,70.14
2022-11-28T10:13:32.657Z,69.72
2022-11-28T10:16:38.816Z,69.23
2022-11-28T10:19:53.950Z,69.18
2022-11-28T10:22:52.853Z,69.33
2022-11-28T10:25:50.358Z,68.98
2022-11-28T10:28:47.823Z,69.05
2022-11-28T10:31:45.295Z,69.12
2022-11-28T10:34:42.964Z,68.76
2022-11-28T10:37:40.420Z,68.36
2022-11-28T10:40:37.859Z,67.97
2022-11-28T10:43:35.345Z,67.86
2022-11-28T10:46:32.945Z,67.57
2022-11-28T10:49:30.904Z,67.46
2022-11-28T10:52:28.339Z,67.45
2022-11-28T10:55:25.795Z,67.24
2022-11-28T10:58:23.256Z,66.62
2022-11-28T11:01:20.749Z,66.46
2022-11-28T11:04:18.331Z,65.49
2022-11-28T11:07:20.228Z,65.93
2022-11-28T11:10:20.531Z,65.99
2022-11-28T11:13:19.291Z,65.77
2022-11-28T11:16:16.792Z,65.64
2022-11-28T11:19:14.264Z,64.94
2022-11-28T11:22:11.732Z,64.53
2022-11-28T11:25:09.185Z,64.53
2022-11-28T11:28:06.639Z,64.49
2022-11-28T11:31:04.136Z,64.76
2022-11-28T11:34:01.660Z,64.62
2022-11-28T11:36:59.138Z,64.41
2022-11-28T11:39:56.602Z,64.89
2022-11-28T11:42:54.060Z,65.01
2022-11-28T11:45:52.685Z,65.24
2022-11-28T11:48:50.337Z,65.54
2022-11-28T11:51:47.816Z,65.85
2022-11-28T11:54:45.285Z,65.50
2022-11-28T11:57:42.768Z,65.58
2022-11-28T12:00:40.349Z,65.82
2022-11-28T12:03:38.428Z,66.07
2022-11-28T12:06:35.910Z,66.19
2022-11-28T12:09:33.433Z,66.17
2022-11-28T12:12:30.922Z,66.28
2022-11-28T12:15:28.391Z,66.33
2022-11-28T12:18:25.889Z,66.47
2022-11-28T12:21:23.324Z,66.72
2022-11-28T12:24:20.764Z,66.62
2022-11-28T12:27:18.211Z,66.68
2022-11-28T12:30:15.668Z,66.72
2022-11-28T12:33:13.414Z,66.72
2022-11-28T12:36:10.878Z,66.51
2022-11-28T12:39:08.339Z,66.66
2022-11-28T12:42:06.496Z,66.96
2022-11-28T12:45:04.084Z,67.45
2022-11-28T12:48:01.800Z,67.82
2022-11-28T12:50:59.259Z,68.70
2022-11-28T12:53:56.768Z,69.43
2022-11-28T12:56:54.243Z,69.96
2022-11-28T12:59:51.749Z,70.30
2022-11-28T13:02:49.386Z,70.61
2022-11-28T13:05:46.892Z,70.88
2022-11-28T13:08:48.376Z,71.15
2022-11-28T13:11:46.675Z,71.33
2022-11-28T13:14:44.596Z,71.66
2022-11-28T13:17:42.347Z,71.93
2022-11-28T13:20:42.247Z,72.22
2022-11-28T13:23:39.728Z,72.47
2022-11-28T13:26:37.407Z,72.69
2022-11-28T13:29:34.914Z,72.87
2022-11-28T13:32:32.382Z,73.18
2022-11-28T13:35:29.847Z,73.38
2022-11-28T13:38:36.188Z,73.61
2022-11-28T13:42:06.324Z,73.81
2022-11-28T13:44:52.354Z,74.01
2022-11-28T13:47:49.772Z,74.22
2022-11-28T13:50:47.227Z,74.40
2022-11-28T13:53:44.709Z,74.53
2022-11-28T13:56:42.204Z,74.63
2022-11-28T13:59:39.694Z,74.71
2022-11-28T14:02:37.314Z,74.83
2022-11-28T14:05:34.862Z,74.98
2022-11-28T14:08:32.338Z,75.10
2022-11-28T14:11:29.808Z,75.18
2022-11-28T14:14:27.307Z,75.33
2022-11-28T14:17:24.798Z,75.45
2022-11-28T14:20:23.012Z,75.57
2022-11-28T14:23:20.488Z,75.64
2022-11-28T14:26:17.958Z,75.78
2022-11-28T14:29:15.445Z,75.88
2022-11-28T14:32:29.781Z,75.97
2022-11-28T14:35:28.401Z,76.10
2022-11-28T14:38:25.865Z,76.13
2022-11-28T14:41:23.486Z,76.21
2022-11-28T14:44:21.682Z,76.28
2022-11-28T14:47:19.483Z,76.30
2022-11-28T14:50:18.237Z,76.35
2022-11-28T14:53:15.757Z,76.45
2022-11-28T14:56:13.231Z,76.57
2022-11-28T14:59:10.717Z,76.63
2022-11-28T15:02:08.230Z,76.74
2022-11-28T15:05:05.697Z,76.80
2022-11-28T15:08:03.169Z,76.84
2022-11-28T15:11:00.651Z,76.93
2022-11-28T15:13:58.119Z,76.96
2022-11-28T15:16:55.592Z,76.99
2022-11-28T15:19:53.144Z,77.02
2022-11-28T15:22:50.593Z,77.11
2022-11-28T15:25:48.072Z,77.19
2022-11-28T15:28:45.542Z,77.20
2022-11-28T15:31:43.041Z,77.22
2022-11-28T15:34:40.823Z,77.31
2022-11-28T15:37:38.501Z,77.32
2022-11-28T15:40:35.966Z,77.38
2022-11-28T15:43:33.433Z,77.40
2022-11-28T15:46:31.049Z,77.49
2022-11-28T15:49:29.370Z,77.50
2022-11-28T15:52:26.867Z,77.53
2022-11-28T15:55:24.343Z,77.58
2022-11-28T15:58:22.260Z,77.63
2022-11-28T16:01:19.896Z,77.71
2022-11-28T16:04:17.444Z,77.80
2022-11-28T16:07:14.969Z,77.84
2022-11-28T16:10:12.590Z,77.89
2022-11-28T16:13:10.098Z,77.96
2022-11-28T16:16:07.585Z,78.00
2022-11-28T16:19:05.089Z,78.07
2022-11-28T16:22:02.566Z,78.09
2022-11-28T16:25:01.004Z,78.13
2022-11-28T16:27:58.504Z,78.20
2022-11-28T16:30:56.521Z,78.22
2022-11-28T16:33:55.728Z,78.26
2022-11-28T16:36:55.224Z,78.25
2022-11-28T16:39:53.302Z,78.29
2022-11-28T16:42:50.891Z,78.28
2022-11-28T16:45:49.143Z,78.29
2022-11-28T16:48:47.238Z,78.30
2022-11-28T16:51:45.085Z,78.30
2022-11-28T16:54:47.030Z,78.32
2022-11-28T16:57:44.564Z,78.39
2022-11-28T17:00:43.008Z,78.43
2022-11-28T17:03:42.263Z,78.48
2022-11-28T17:06:39.741Z,78.50
2022-11-28T17:09:37.680Z,78.52
2022-11-28T17:12:37.647Z,78.55
2022-11-28T17:15:37.252Z,78.60
2022-11-28T17:18:35.666Z,78.63
2022-11-28T17:21:33.870Z,78.65
2022-11-28T17:24:31.409Z,78.70
2022-11-28T17:27:29.323Z,78.72
2022-11-28T17:30:29.587Z,78.78
2022-11-28T17:33:27.642Z,78.81
2022-11-28T17:36:26.092Z,78.82
2022-11-28T17:39:24.157Z,78.88
2022-11-28T17:42:22.512Z,78.84
2022-11-28T17:45:20.524Z,78.88
2022-11-28T17:48:21.641Z,78.87
2022-11-28T17:51:20.519Z,78.84
2022-11-28T17:54:19.153Z,78.83
2022-11-28T17:57:17.145Z,78.88
2022-11-28T18:00:16.104Z,78.79
2022-11-28T18:03:14.409Z,78.75
2022-11-28T18:06:12.976Z,78.77
2022-11-28T18:09:12.427Z,78.79
2022-11-28T18:12:11.206Z,78.77
2022-11-28T18:15:10.469Z,78.77
2022-11-28T18:18:10.036Z,78.71
2022-11-28T18:21:09.411Z,78.70
2022-11-28T18:24:07.673Z,78.74
2022-11-28T18:27:06.299Z,78.75
2022-11-28T18:30:04.765Z,78.77
2022-11-28T18:33:02.818Z,78.72
2022-11-28T18:36:02.655Z,78.71
2022-11-28T18:39:01.155Z,78.71
2022-11-28T18:42:00.684Z,78.69
2022-11-28T18:44:59.447Z,78.63
2022-11-28T18:48:00.199Z,78.60
2022-11-28T18:50:59.801Z,78.55
2022-11-28T18:53:58.691Z,78.48
2022-11-28T18:56:57.091Z,78.36
2022-11-28T18:59:58.895Z,78.30
2022-11-28T19:03:00.660Z,78.32
2022-11-28T19:05:58.875Z,78.31
2022-11-28T19:08:57.192Z,78.27
2022-11-28T19:11:56.457Z,78.22
2022-11-28T19:15:00.266Z,78.13
2022-11-28T19:18:00.506Z,78.10
2022-11-28T19:20:58.634Z,78.09
2022-11-28T19:23:57.534Z,77.97
2022-11-28T19:26:56.632Z,77.97
2022-11-28T19:29:56.471Z,77.93
2022-11-28T19:32:55.239Z,77.90
2022-11-28T19:35:54.641Z,77.97
2022-11-28T19:38:53.518Z,78.00
2022-11-28T19:41:51.759Z,78.00
2022-11-28T19:44:51.425Z,77.98
2022-11-28T19:47:50.240Z,77.96
2022-11-28T19:50:48.253Z,77.97
2022-11-28T19:53:46.960Z,77.92
2022-11-28T19:56:46.562Z,77.99
2022-11-28T19:59:46.129Z,77.97
2022-11-28T20:02:44.816Z,77.92
2022-11-28T20:05:43.470Z,77.90
2022-11-28T20:08:42.361Z,77.90
2022-11-28T20:11:54.294Z,77.88
2022-11-28T20:14:54.386Z,77.82
2022-11-28T20:17:53.568Z,77.82
2022-11-28T20:20:52.113Z,77.80
2022-11-28T20:23:50.907Z,77.70
2022-11-28T20:26:51.219Z,77.70
2022-11-28T20:29:48.752Z,77.67
2022-11-28T20:32:46.788Z,77.63
2022-11-28T20:35:44.786Z,77.60
2022-11-28T20:38:44.129Z,77.69
2022-11-28T20:41:44.055Z,77.70
2022-11-28T20:44:46.987Z,77.69
2022-11-28T20:47:49.824Z,77.72
2022-11-28T20:50:49.189Z,77.78
2022-11-28T20:53:47.494Z,77.82
2022-11-28T20:57:19.025Z,77.88
2022-11-28T21:00:04.181Z,77.91
2022-11-28T21:03:02.909Z,77.90
2022-11-28T21:06:01.482Z,77.95
2022-11-28T21:08:59.496Z,77.94
2022-11-28T21:11:59.388Z,77.94
2022-11-28T21:14:57.243Z,77.91
2022-11-28T21:17:58.399Z,77.85
2022-11-28T21:20:56.475Z,77.82
2022-11-28T21:23:54.544Z,77.78
2022-11-28T21:26:54.456Z,77.78
2022-11-28T21:29:53.343Z,77.80
2022-11-28T21:32:51.203Z,77.80
2022-11-28T21:35:48.717Z,77.79
2022-11-28T21:38:46.224Z,77.79
2022-11-28T21:41:43.721Z,77.79
2022-11-28T21:44:41.221Z,77.89
2022-11-28T21:47:38.669Z,77.90
2022-11-28T21:50:36.125Z,77.89
2022-11-28T21:53:33.616Z,77.90
2022-11-28T21:56:31.081Z,77.94
2022-11-28T21:59:28.598Z,77.99
2022-11-28T22:02:30.529Z,78.00
2022-11-28T22:05:28.543Z,77.99
2022-11-28T22:08:25.989Z,77.97
2022-11-28T22:11:24.254Z,78.01
2022-11-28T22:14:21.721Z,78.03
2022-11-28T22:17:19.219Z,78.08
2022-11-28T22:20:16.700Z,78.07
2022-11-28T22:23:14.337Z,78.16
2022-11-28T22:26:11.815Z,78.20
2022-11-28T22:29:09.269Z,78.21
2022-11-28T22:32:06.816Z,78.28
2022-11-28T22:35:04.280Z,78.30
2022-11-28T22:38:01.742Z,78.31
2022-11-28T22:40:59.193Z,78.38
2022-11-28T22:43:56.730Z,78.38
2022-11-28T22:46:54.238Z,78.40
2022-11-28T22:49:51.704Z,78.40
2022-11-28T22:52:49.140Z,78.43
2022-11-28T22:55:46.615Z,78.40
2022-11-28T22:58:44.077Z,78.40
2022-11-28T23:01:41.616Z,78.40
2022-11-28T23:04:39.158Z,78.39
2022-11-28T23:07:36.676Z,78.40
2022-11-28T23:10:34.170Z,78.41
2022-11-28T23:13:31.625Z,78.48
2022-11-28T23:16:29.158Z,78.52
2022-11-28T23:19:26.637Z,78.60
2022-11-28T23:22:24.095Z,78.60
2022-11-28T23:25:21.586Z,78.68
2022-11-28T23:28:19.033Z,78.69
2022-11-28T23:31:16.569Z,78.70
2022-11-28T23:34:14.120Z,78.75
2022-11-28T23:37:11.570Z,78.81
2022-11-28T23:40:09.058Z,78.86
2022-11-28T23:43:06.519Z,78.90
2022-11-28T23:46:04.034Z,78.96
2022-11-28T23:49:01.499Z,79.02
2022-11-28T23:51:58.995Z,79.07
2022-11-28T23:54:56.452Z,79.12
2022-11-28T23:57:53.908Z,79.21
